Time;durP1;ratioP1;P1;durP2;ratioP2;P2;SDS_P1;SDS_P2;PMS_P1;PMS_P2;Temp;Humidity;BMP_temperature;BMP_pressure;BME280_temperature;BME280_humidity;BME280_pressure;Samples;Min_cycle;Max_cycle;Signal;HPM_P1;HPM_P2
2024/03/17 00:03:15;;;;;;;;;;;;;;;18.10;46.23;100448.25;10326890;28;837;-75
2024/03/17 00:08:11;;;;;;;;;;;;;;;18.10;46.37;100453.53;10326620;28;866;-74
2024/03/17 00:13:07;;;;;;;;;;;;;;;18.09;46.29;100445.66;10325392;28;830;-75
2024/03/17 00:18:04;;;;;;;;;;;;;;;18.08;46.29;100444.81;10325357;28;1902;-75
2024/03/17 00:22:59;;;;;;;;;;;;;;;18.07;46.21;100445.69;10325766;28;887;-75
2024/03/17 00:27:57;;;;;;;;;;;;;;;18.07;46.23;100453.59;10326030;28;921;-75
2024/03/17 00:32:53;;;;;;;;;;;;;;;18.06;46.25;100443.97;10325939;28;1151;-75
2024/03/17 00:37:49;;;;;;;;;;;;;;;18.05;46.13;100436.09;10325590;28;1981;-75
2024/03/17 00:42:45;;;;;;;;;;;;;;;18.04;46.09;100440.53;10325341;28;798;-75
2024/03/17 00:47:41;;;;;;;;;;;;;;;18.03;46.25;100435.31;10325868;28;814;-75
2024/03/17 00:52:36;;;;;;;;;;;;;;;18.02;46.26;100429.16;10325197;28;841;-75
2024/03/17 00:57:32;;;;;;;;;;;;;;;18.01;46.28;100427.44;10324383;28;1898;-75
2024/03/17 01:02:28;;;;;;;;;;;;;;;18.01;46.41;100423.94;10324979;28;853;-75
2024/03/17 01:07:25;;;;;;;;;;;;;;;17.99;46.33;100416.06;10325503;28;869;-75
2024/03/17 01:12:21;;;;;;;;;;;;;;;17.98;46.21;100401.19;10324640;28;966;-75
2024/03/17 01:17:18;;;;;;;;;;;;;;;17.98;46.40;100409.09;10325418;28;1953;-75
2024/03/17 01:22:14;;;;;;;;;;;;;;;17.98;46.19;100410.88;10325144;28;838;-75
2024/03/17 01:27:14;;;;;;;;;;;;;;;17.95;46.13;100394.22;10323962;28;1182;-75
2024/03/17 01:32:10;;;;;;;;;;;;;;;17.94;46.14;100389.84;10325300;28;1211;-75
2024/03/17 01:37:06;;;;;;;;;;;;;;;17.95;46.04;100393.38;10324263;28;1906;-75
2024/03/17 01:42:03;;;;;;;;;;;;;;;17.93;46.12;100380.22;10327938;28;862;-75
2024/03/17 01:47:00;;;;;;;;;;;;;;;17.92;46.28;100373.22;10332800;28;862;-75
2024/03/17 01:51:56;;;;;;;;;;;;;;;17.92;46.10;100367.06;10331349;28;1012;-75
2024/03/17 01:56:52;;;;;;;;;;;;;;;17.91;46.20;100373.28;10331170;28;1894;-75
2024/03/17 02:01:48;;;;;;;;;;;;;;;17.91;46.12;100365.38;10331667;28;850;-75
2024/03/17 02:06:44;;;;;;;;;;;;;;;17.89;46.04;100361.91;10331650;28;906;-75
2024/03/17 02:11:42;;;;;;;;;;;;;;;17.88;46.22;100373.38;10330981;28;810;-75
2024/03/17 02:16:38;;;;;;;;;;;;;;;17.87;46.03;100376.94;10330436;28;1895;-75
2024/03/17 02:21:33;;;;;;;;;;;;;;;17.86;46.22;100368.16;10330529;28;1066;-74
2024/03/17 02:26:29;;;;;;;;;;;;;;;17.86;46.06;100373.41;10330187;28;810;-74
2024/03/17 02:31:25;;;;;;;;;;;;;;;17.85;46.03;100366.44;10330153;28;1295;-75
2024/03/17 02:36:21;;;;;;;;;;;;;;;17.85;46.20;100365.59;10330133;28;1973;-75
2024/03/17 02:41:17;;;;;;;;;;;;;;;17.83;46.05;100360.34;10329406;28;899;-75
2024/03/17 02:46:13;;;;;;;;;;;;;;;17.83;46.20;100359.50;10329371;28;973;-75
2024/03/17 02:51:09;;;;;;;;;;;;;;;17.82;46.08;100355.13;10328800;28;821;-75
2024/03/17 02:56:06;;;;;;;;;;;;;;;17.81;46.12;100356.03;10328888;28;1894;-75
2024/03/17 03:01:02;;;;;;;;;;;;;;;17.80;46.02;100360.44;10329316;28;1591;-75
2024/03/17 03:06:00;;;;;;;;;;;;;;;17.78;46.24;100358.75;10329430;28;879;-75
2024/03/17 03:10:56;;;;;;;;;;;;;;;17.77;46.27;100357.88;10328621;28;802;-75
2024/03/17 03:15:53;;;;;;;;;;;;;;;17.75;46.08;100360.56;10328133;28;1961;-75
2024/03/17 03:20:49;;;;;;;;;;;;;;;17.73;46.10;100362.38;10328568;28;841;-75
2024/03/17 03:25:45;;;;;;;;;;;;;;;17.71;45.96;100355.44;10328970;28;850;-75
2024/03/17 03:30:41;;;;;;;;;;;;;;;17.69;45.96;100357.28;10327669;28;1188;-75
2024/03/17 03:35:37;;;;;;;;;;;;;;;17.67;46.10;100357.31;10327308;28;1913;-75
2024/03/17 03:40:33;;;;;;;;;;;;;;;17.65;45.91;100358.28;10326490;28;901;-74
2024/03/17 03:45:29;;;;;;;;;;;;;;;17.62;46.09;100348.69;10327577;28;1028;-75
2024/03/17 03:50:25;;;;;;;;;;;;;;;17.61;46.03;100349.63;10326762;28;806;-75
2024/03/17 03:55:20;;;;;;;;;;;;;;;17.62;46.12;100346.06;10327370;28;1886;-75
2024/03/17 04:00:18;;;;;;;;;;;;;;;17.60;46.13;100337.34;10327510;28;860;-75
2024/03/17 04:05:14;;;;;;;;;;;;;;;17.61;46.18;100338.22;10326824;28;846;-75
2024/03/17 04:10:10;;;;;;;;;;;;;;;17.60;46.05;100342.63;10326200;28;830;-75
2024/03/17 04:15:06;;;;;;;;;;;;;;;17.60;46.06;100344.41;10325954;28;1952;-75
2024/03/17 04:20:03;;;;;;;;;;;;;;;17.58;46.15;100336.56;10325850;28;878;-75
2024/03/17 04:24:59;;;;;;;;;;;;;;;17.59;46.00;100347.97;10325728;28;878;-75
2024/03/17 04:29:55;;;;;;;;;;;;;;;17.58;46.08;100347.09;10326173;28;1333;-75
2024/03/17 04:34:51;;;;;;;;;;;;;;;17.58;45.98;100343.56;10326311;28;1972;-75
2024/03/17 04:39:47;;;;;;;;;;;;;;;17.58;46.01;100347.09;10325431;28;917;-75
2024/03/17 04:44:43;;;;;;;;;;;;;;;17.58;45.91;100346.22;10325225;28;763;-75
2024/03/17 04:49:39;;;;;;;;;;;;;;;17.60;46.02;100341.75;10325341;28;767;-75
2024/03/17 04:54:34;;;;;;;;;;;;;;;17.62;45.97;100347.84;10325097;28;1989;-75
2024/03/17 04:59:30;;;;;;;;;;;;;;;17.62;46.04;100343.44;10325611;28;960;-75
2024/03/17 05:04:26;;;;;;;;;;;;;;;17.63;46.03;100334.63;10324350;28;791;-75
2024/03/17 05:09:22;;;;;;;;;;;;;;;17.65;45.89;100326.66;10324285;28;905;-74
2024/03/17 05:14:21;;;;;;;;;;;;;;;17.66;46.17;100323.97;10325825;28;1902;-75
2024/03/17 05:19:17;;;;;;;;;;;;;;;17.68;46.02;100311.63;10332769;28;814;-75
2024/03/17 05:24:13;;;;;;;;;;;;;;;17.68;45.87;100314.25;10333104;28;917;-75
2024/03/17 05:29:09;;;;;;;;;;;;;;;17.69;45.81;100305.41;10331814;28;1373;-75
2024/03/17 05:34:05;;;;;;;;;;;;;;;17.71;45.98;100311.50;10332698;28;866;-75
2024/03/17 05:39:01;;;;;;;;;;;;;;;17.71;45.96;100316.78;10332463;28;1898;-75
2024/03/17 05:43:58;;;;;;;;;;;;;;;17.73;46.00;100319.34;10332489;28;913;-72
2024/03/17 05:48:54;;;;;;;;;;;;;;;17.75;45.89;100317.53;10331849;28;924;-76
2024/03/17 05:53:49;;;;;;;;;;;;;;;17.76;45.92;100311.31;10331397;28;953;-73
2024/03/17 05:58:46;;;;;;;;;;;;;;;17.77;45.94;100307.78;10331201;28;1890;-74
2024/03/17 06:03:42;;;;;;;;;;;;;;;17.78;45.87;100312.13;10330984;28;891;-77
2024/03/17 06:08:38;;;;;;;;;;;;;;;17.79;45.92;100310.34;10330909;28;1091;-74
2024/03/17 06:13:34;;;;;;;;;;;;;;;17.80;45.92;100310.34;10330914;28;866;-75
2024/03/17 06:18:30;;;;;;;;;;;;;;;17.81;45.87;100306.78;10330495;28;1894;-74
2024/03/17 06:23:29;;;;;;;;;;;;;;;17.81;46.01;100300.66;10330934;28;866;-74
2024/03/17 06:28:26;;;;;;;;;;;;;;;17.82;45.92;100312.94;10330587;28;885;-74
2024/03/17 06:33:22;;;;;;;;;;;;;;;17.83;45.96;100310.25;10330535;28;1281;-74
2024/03/17 06:38:17;;;;;;;;;;;;;;;17.84;46.04;100301.44;10329096;28;1910;-77
2024/03/17 06:43:13;;;;;;;;;;;;;;;17.84;45.89;100300.53;10329496;28;885;-75
2024/03/17 06:48:10;;;;;;;;;;;;;;;17.85;45.70;100303.16;10330001;28;873;-75
2024/03/17 06:53:05;;;;;;;;;;;;;;;17.85;45.74;100297.88;10329132;28;875;-75
2024/03/17 06:58:03;;;;;;;;;;;;;;;17.86;45.88;100280.25;10329042;28;1890;-77
2024/03/17 07:02:59;;;;;;;;;;;;;;;17.87;45.98;100279.38;10329480;28;869;-78
2024/03/17 07:07:55;;;;;;;;;;;;;;;17.87;46.10;100285.50;10326383;28;1117;-74
2024/03/17 07:12:51;;;;;;;;;;;;;;;17.89;45.93;100288.06;10327805;28;988;-75
2024/03/17 07:17:47;;;;;;;;;;;;;;;17.91;45.85;100291.50;10326925;28;1947;-74
2024/03/17 07:22:42;;;;;;;;;;;;;;;17.91;46.06;100294.16;10327757;28;881;-74
2024/03/17 07:27:38;;;;;;;;;;;;;;;17.91;45.87;100286.25;10327529;28;1187;-77
2024/03/17 07:32:34;;;;;;;;;;;;;;;17.92;46.14;100280.03;10326965;28;1164;-74
2024/03/17 07:37:30;;;;;;;;;;;;;;;17.93;45.93;100269.44;10326707;28;2025;-74
2024/03/17 07:42:26;;;;;;;;;;;;;;;17.94;46.10;100265.03;10326920;28;910;-78
2024/03/17 07:47:22;;;;;;;;;;;;;;;17.96;46.17;100263.19;10326339;28;838;-73
2024/03/17 07:52:18;;;;;;;;;;;;;;;17.97;46.09;100264.91;10325993;28;805;-74
2024/03/17 07:57:14;;;;;;;;;;;;;;;17.97;46.24;100270.19;10326169;28;1890;-74
2024/03/17 08:02:10;;;;;;;;;;;;;;;18.00;46.18;100271.84;10325965;28;1603;-74
2024/03/17 08:07:06;;;;;;;;;;;;;;;18.00;46.20;100269.22;10326488;28;929;-77
2024/03/17 08:12:04;;;;;;;;;;;;;;;18.00;46.01;100272.75;10325768;28;774;-74
2024/03/17 08:17:00;;;;;;;;;;;;;;;18.00;46.11;100278.03;10325530;28;1890;-74
2024/03/17 08:21:55;;;;;;;;;;;;;;;18.02;46.15;100272.66;10325802;28;877;-73
2024/03/17 08:26:51;;;;;;;;;;;;;;;18.02;46.25;100252.41;10307420;28;836;-79
2024/03/17 08:31:49;;;;;;;;;;;;;;;18.03;46.03;100248.03;10325249;28;1323;-74
2024/03/17 08:36:45;;;;;;;;;;;;;;;18.05;46.06;100270.81;10325180;28;1977;-74
2024/03/17 08:41:41;;;;;;;;;;;;;;;18.07;46.17;100270.72;10324863;28;962;-74
2024/03/17 08:46:37;;;;;;;;;;;;;;;18.08;46.31;100278.59;10325020;28;911;-73
2024/03/17 08:51:33;;;;;;;;;;;;;;;18.10;46.23;100265.34;10324317;28;803;-73
2024/03/17 08:56:29;;;;;;;;;;;;;;;18.10;46.26;100265.34;10325467;28;1975;-75
2024/03/17 09:01:27;;;;;;;;;;;;;;;18.10;46.25;100276.78;10324328;28;838;-74
2024/03/17 09:06:23;;;;;;;;;;;;;;;18.10;46.22;100287.31;10325115;28;1239;-80
2024/03/17 09:11:24;;;;;;;;;;;;;;;18.10;46.32;100289.97;10323063;28;1128;-74
2024/03/17 09:16:22;;;;;;;;;;;;;;;18.10;46.14;100295.25;10324481;28;1968;-74
2024/03/17 09:21:18;;;;;;;;;;;;;;;18.11;46.48;100293.47;10324708;28;855;-74
2024/03/17 09:26:16;;;;;;;;;;;;;;;18.11;46.36;100299.59;10324246;28;849;-74
2024/03/17 09:31:12;;;;;;;;;;;;;;;18.12;46.24;100281.97;10324473;28;1314;-74
2024/03/17 09:36:08;;;;;;;;;;;;;;;18.12;46.28;100285.47;10323847;28;1973;-77
2024/03/17 09:41:04;;;;;;;;;;;;;;;18.12;46.12;100274.91;10323593;28;806;-74
2024/03/17 09:45:59;;;;;;;;;;;;;;;18.13;46.29;100266.09;10324071;28;831;-74
2024/03/17 09:50:55;;;;;;;;;;;;;;;18.15;46.20;100258.13;10324012;28;839;-76
2024/03/17 09:55:53;;;;;;;;;;;;;;;18.15;46.29;100260.75;10323406;28;1917;-75
2024/03/17 10:00:49;;;;;;;;;;;;;;;18.15;46.25;100255.47;10324540;28;895;-74
2024/03/17 10:05:45;;;;;;;;;;;;;;;18.15;46.29;100251.06;10329029;28;1013;-74
2024/03/17 10:10:40;;;;;;;;;;;;;;;18.16;46.21;100262.50;10330179;28;811;-74
2024/03/17 10:15:36;;;;;;;;;;;;;;;18.16;46.05;100266.00;10329436;28;1963;-75
2024/03/17 10:20:32;;;;;;;;;;;;;;;18.17;46.10;100248.38;10330618;28;779;-75
2024/03/17 10:25:28;;;;;;;;;;;;;;;18.22;46.09;100245.56;10329430;28;802;-73
2024/03/17 10:30:25;;;;;;;;;;;;;;;18.23;46.18;100252.56;10330149;28;1224;-74
2024/03/17 10:35:21;;;;;;;;;;;;;;;18.21;46.12;100239.44;10329066;28;1967;-75
2024/03/17 10:40:18;;;;;;;;;;;;;;;18.23;45.97;100249.91;10329282;28;1185;-74
2024/03/17 10:45:13;;;;;;;;;;;;;;;18.22;46.16;100243.78;10329216;28;937;-74
2024/03/17 10:50:10;;;;;;;;;;;;;;;18.22;46.29;100256.13;10329517;28;850;-75
2024/03/17 10:55:07;;;;;;;;;;;;;;;18.20;46.31;100253.53;10328519;28;1905;-74
2024/03/17 11:00:08;;;;;;;;;;;;;;;18.21;46.35;100259.66;10328650;28;915;-75
2024/03/17 11:05:03;;;;;;;;;;;;;;;18.22;46.46;100254.34;10326614;28;1148;-75
2024/03/17 11:09:59;;;;;;;;;;;;;;;18.22;46.48;100256.13;10328459;28;932;-74
2024/03/17 11:14:55;;;;;;;;;;;;;;;18.23;46.48;100252.56;10327928;28;1959;-75
2024/03/17 11:19:51;;;;;;;;;;;;;;;18.23;46.30;100252.56;10327694;28;743;-74
2024/03/17 11:24:47;;;;;;;;;;;;;;;18.24;46.24;100244.59;10327215;28;782;-75
2024/03/17 11:29:43;;;;;;;;;;;;;;;18.25;46.26;100248.09;10327485;28;1260;-74
2024/03/17 11:34:39;;;;;;;;;;;;;;;18.26;46.15;100247.16;10327490;28;1969;-75
2024/03/17 11:39:35;;;;;;;;;;;;;;;18.27;46.20;100246.25;10327337;28;838;-75
2024/03/17 11:44:31;;;;;;;;;;;;;;;18.28;46.24;100242.69;10327409;28;924;-75
2024/03/17 11:49:27;;;;;;;;;;;;;;;18.29;46.21;100245.28;10326934;28;879;-75
2024/03/17 11:54:23;;;;;;;;;;;;;;;18.28;46.10;100246.19;10322347;28;1085;-74
2024/03/17 11:59:19;;;;;;;;;;;;;;;18.28;46.18;100245.34;10326634;28;1890;-74
2024/03/17 12:04:15;;;;;;;;;;;;;;;18.28;46.04;100238.28;10325569;28;957;-75
2024/03/17 12:09:11;;;;;;;;;;;;;;;18.29;46.07;100236.53;10325946;28;925;-77
2024/03/17 12:14:07;;;;;;;;;;;;;;;18.28;46.17;100226.88;10326815;28;869;-75
2024/03/17 12:19:03;;;;;;;;;;;;;;;18.27;46.21;100223.38;10325653;28;1952;-75
2024/03/17 12:23:58;;;;;;;;;;;;;;;18.27;46.17;100225.16;10324970;28;774;-75
2024/03/17 12:28:54;;;;;;;;;;;;;;;18.28;46.26;100221.59;10325307;28;1058;-75
2024/03/17 12:33:50;;;;;;;;;;;;;;;18.28;46.16;100211.88;10325691;28;886;-75
2024/03/17 12:38:46;;;;;;;;;;;;;;;18.28;46.10;100205.75;10325811;28;1969;-75
2024/03/17 12:43:42;;;;;;;;;;;;;;;18.29;46.16;100203.06;10325166;28;819;-75
2024/03/17 12:48:38;;;;;;;;;;;;;;;18.31;46.17;100187.16;10325104;28;949;-75
2024/03/17 12:53:34;;;;;;;;;;;;;;;18.34;46.20;100179.16;10324396;28;897;-74
2024/03/17 13:03:44;;;;;;;;;;;;;;;18.39;46.18;100163.97;10324555;28;723;-75
2024/03/17 13:08:40;;;;;;;;;;;;;;;18.39;46.33;100156.03;10324655;28;939;-75
2024/03/17 13:13:36;;;;;;;;;;;;;;;18.38;46.25;100149.91;10324569;28;909;-75
2024/03/17 13:18:32;;;;;;;;;;;;;;;18.38;46.28;100152.56;10324497;28;1894;-75
2024/03/17 13:23:29;;;;;;;;;;;;;;;18.39;46.25;100138.47;10325011;28;779;-75
2024/03/17 13:28:25;;;;;;;;;;;;;;;18.39;46.24;100127.00;10324540;28;956;-75
2024/03/17 13:33:21;;;;;;;;;;;;;;;18.39;46.25;100114.72;10324127;28;1278;-75
2024/03/17 13:38:17;;;;;;;;;;;;;;;18.42;46.50;100118.13;10329961;28;1959;-75
2024/03/17 13:43:13;;;;;;;;;;;;;;;18.43;46.36;100114.56;10331678;28;992;-75
2024/03/17 13:48:10;;;;;;;;;;;;;;;18.43;46.22;100098.75;10331527;28;763;-75
2024/03/17 13:53:06;;;;;;;;;;;;;;;18.43;46.32;100098.75;10331305;28;802;-75
2024/03/17 13:58:04;;;;;;;;;;;;;;;18.43;46.29;100091.69;10331631;28;1957;-75
2024/03/17 14:03:00;;;;;;;;;;;;;;;18.44;46.41;100080.19;10330946;28;868;-75
2024/03/17 14:07:56;;;;;;;;;;;;;;;18.45;46.45;100071.38;10331540;28;861;-75
2024/03/17 14:12:53;;;;;;;;;;;;;;;18.48;46.57;100065.09;10331509;28;842;-75
2024/03/17 14:17:50;;;;;;;;;;;;;;;18.49;46.52;100072.94;10331355;28;2012;-75
2024/03/17 14:22:47;;;;;;;;;;;;;;;18.50;46.52;100064.13;10331051;28;966;-76
2024/03/17 14:27:43;;;;;;;;;;;;;;;18.52;46.41;100057.00;10330936;28;802;-80
2024/03/17 14:32:39;;;;;;;;;;;;;;;18.51;46.64;100055.25;10330694;28;1235;-78
2024/03/17 14:37:35;;;;;;;;;;;;;;;18.50;46.49;100047.44;10330441;28;1965;-74
2024/03/17 14:42:31;;;;;;;;;;;;;;;18.47;46.61;100032.56;10330453;28;1027;-73
2024/03/17 14:47:26;;;;;;;;;;;;;;;18.45;46.63;100036.19;10328820;28;860;-73
2024/03/17 14:52:24;;;;;;;;;;;;;;;18.43;46.66;100044.16;10329606;28;1000;-73
2024/03/17 14:57:21;;;;;;;;;;;;;;;18.41;46.39;100032.81;10329066;28;1973;-74
2024/03/17 15:02:16;;;;;;;;;;;;;;;18.40;46.53;100029.31;10328922;28;977;-74
2024/03/17 15:07:12;;;;;;;;;;;;;;;18.39;46.44;100024.97;10328692;28;907;-77
2024/03/17 15:12:08;;;;;;;;;;;;;;;18.39;46.46;100021.44;10328929;28;962;-74
2024/03/17 15:17:05;;;;;;;;;;;;;;;18.37;46.46;100010.13;10328304;28;1959;-74
2024/03/17 15:22:03;;;;;;;;;;;;;;;18.37;46.56;100004.84;10328124;28;790;-73
2024/03/17 15:26:59;;;;;;;;;;;;;;;18.36;46.60;100006.59;10327948;28;899;-75
2024/03/17 15:31:56;;;;;;;;;;;;;;;18.35;46.49;99996.97;10309420;28;1296;-75
2024/03/17 15:36:52;;;;;;;;;;;;;;;18.35;46.24;99989.06;10327440;28;1973;-75
2024/03/17 15:41:48;;;;;;;;;;;;;;;18.34;46.24;99984.72;10327367;28;872;-74
2024/03/17 15:46:44;;;;;;;;;;;;;;;18.34;46.36;99984.72;10327513;28;863;-75
2024/03/17 15:51:40;;;;;;;;;;;;;;;18.34;46.34;99983.88;10326408;28;822;-74
2024/03/17 15:56:36;;;;;;;;;;;;;;;18.34;46.25;99981.22;10326666;28;1959;-74
2024/03/17 16:01:32;;;;;;;;;;;;;;;18.35;46.36;99985.56;10326316;28;964;-74
2024/03/17 16:06:28;;;;;;;;;;;;;;;18.33;46.36;99977.69;10326446;28;818;-73
2024/03/17 16:11:26;;;;;;;;;;;;;;;18.34;46.35;99975.94;10308388;28;988;-79
2024/03/17 16:16:25;;;;;;;;;;;;;;;18.34;46.21;99970.66;10326163;28;1893;-74
2024/03/17 16:21:21;;;;;;;;;;;;;;;18.33;46.43;99971.56;10325454;28;1036;-75
2024/03/17 16:26:17;;;;;;;;;;;;;;;18.33;46.41;99969.78;10326490;28;971;-74
2024/03/17 16:31:13;;;;;;;;;;;;;;;18.35;46.16;99967.09;10326176;28;1435;-73
2024/03/17 16:36:08;;;;;;;;;;;;;;;18.34;46.34;99968.03;10325571;28;1906;-74
2024/03/17 16:41:06;;;;;;;;;;;;;;;18.35;46.33;99967.09;10326092;28;912;-74
2024/03/17 16:46:02;;;;;;;;;;;;;;;18.36;46.44;99960.88;10325482;28;786;-73
2024/03/17 16:50:58;;;;;;;;;;;;;;;18.37;46.45;99967.91;10325341;28;984;-74
2024/03/17 16:55:54;;;;;;;;;;;;;;;18.36;46.33;99964.38;10325691;28;1890;-74
2024/03/17 17:00:50;;;;;;;;;;;;;;;18.37;46.57;99960.84;10325691;28;1021;-74
2024/03/17 17:05:46;;;;;;;;;;;;;;;18.38;46.46;99965.19;10325100;28;790;-75
2024/03/17 17:10:42;;;;;;;;;;;;;;;18.39;46.52;99958.09;10327033;28;858;-74
2024/03/17 17:15:38;;;;;;;;;;;;;;;18.39;46.39;99945.78;10333059;28;1917;-74
2024/03/17 17:20:34;;;;;;;;;;;;;;;18.39;46.53;99937.88;10333298;28;891;-78
2024/03/17 17:25:30;;;;;;;;;;;;;;;18.40;46.45;99938.72;10333046;28;834;-78
2024/03/17 17:30:26;;;;;;;;;;;;;;;18.40;46.42;99936.94;10332067;28;1253;-77
2024/03/17 17:35:22;;;;;;;;;;;;;;;18.39;46.52;99934.34;10332583;28;1967;-77
2024/03/17 17:40:18;;;;;;;;;;;;;;;18.39;46.49;99939.63;10331783;28;933;-78
2024/03/17 17:45:14;;;;;;;;;;;;;;;18.40;46.60;99936.94;10331845;28;812;-77
2024/03/17 17:50:11;;;;;;;;;;;;;;;18.40;46.35;99941.38;10332657;28;862;-77
2024/03/17 17:55:08;;;;;;;;;;;;;;;18.39;46.42;99943.16;10331300;28;1875;-78
2024/03/17 18:00:10;;;;;;;;;;;;;;;18.40;46.17;99958.06;10331686;28;802;-77
2024/03/17 18:05:06;;;;;;;;;;;;;;;18.40;46.27;99962.47;10332078;28;1696;-77
2024/03/17 18:10:02;;;;;;;;;;;;;;;18.39;46.37;99958.09;10330818;28;873;-77
2024/03/17 18:14:59;;;;;;;;;;;;;;;18.39;46.44;99964.28;10331197;28;1886;-77
2024/03/17 18:19:54;;;;;;;;;;;;;;;18.39;46.31;99961.63;10330438;28;936;-78
2024/03/17 18:24:50;;;;;;;;;;;;;;;18.40;46.44;99962.47;10328521;28;1241;-77
2024/03/17 18:29:48;;;;;;;;;;;;;;;18.40;46.54;99973.88;10329660;28;1354;-78
2024/03/17 18:34:44;;;;;;;;;;;;;;;18.40;46.34;99958.06;10329777;28;2275;-78
2024/03/17 18:39:40;;;;;;;;;;;;;;;18.42;46.44;99960.66;10329681;28;977;-78
2024/03/17 18:44:36;;;;;;;;;;;;;;;18.41;46.31;99958.91;10329498;28;917;-77
2024/03/17 18:49:31;;;;;;;;;;;;;;;18.43;46.35;99953.59;10328735;28;1021;-77
2024/03/17 18:54:27;;;;;;;;;;;;;;;18.44;46.38;99952.63;10329715;28;819;-77
2024/03/17 18:59:23;;;;;;;;;;;;;;;18.44;46.48;99953.50;10328886;28;1905;-77
2024/03/17 19:04:19;;;;;;;;;;;;;;;18.44;46.36;99950.84;10329332;28;881;-77
2024/03/17 19:09:15;;;;;;;;;;;;;;;18.45;46.48;99949.94;10328528;28;925;-78
2024/03/17 19:14:11;;;;;;;;;;;;;;;18.45;46.32;99947.31;10328294;28;883;-78
2024/03/17 19:19:07;;;;;;;;;;;;;;;18.46;46.33;99951.66;10327961;28;1898;-77
2024/03/17 19:24:03;;;;;;;;;;;;;;;18.46;46.28;99946.38;10327931;28;872;-77
2024/03/17 19:28:59;;;;;;;;;;;;;;;18.47;46.56;99942.84;10327538;28;1088;-77
2024/03/17 19:33:57;;;;;;;;;;;;;;;18.47;46.24;99929.63;10327378;28;937;-77
2024/03/17 19:38:54;;;;;;;;;;;;;;;18.47;46.57;99921.72;10327174;28;1922;-77
2024/03/17 19:43:50;;;;;;;;;;;;;;;18.49;46.50;99919.00;10327023;28;882;-77
2024/03/17 19:48:46;;;;;;;;;;;;;;;18.49;46.39;99914.56;10327497;28;842;-77
2024/03/17 19:53:43;;;;;;;;;;;;;;;18.49;46.50;99908.44;10326055;28;1096;-77
2024/03/17 19:58:39;;;;;;;;;;;;;;;18.49;46.40;99903.16;10326494;28;1914;-77
2024/03/17 20:03:35;;;;;;;;;;;;;;;18.50;46.54;99911.03;10326271;28;897;-77
2024/03/17 20:08:31;;;;;;;;;;;;;;;18.51;46.41;99911.88;10325567;28;801;-77
2024/03/17 20:13:27;;;;;;;;;;;;;;;18.51;46.44;99901.31;10326029;28;873;-78
2024/03/17 20:18:23;;;;;;;;;;;;;;;18.51;46.40;99918.00;10326353;28;1889;-77
2024/03/17 20:23:18;;;;;;;;;;;;;;;18.52;46.40;99919.72;10326605;28;885;-77
2024/03/17 20:28:15;;;;;;;;;;;;;;;18.52;46.42;99913.56;10325329;28;917;-77
2024/03/17 20:33:10;;;;;;;;;;;;;;;18.52;46.40;99906.53;10326148;28;1156;-77
2024/03/17 20:38:07;;;;;;;;;;;;;;;18.54;46.31;99901.19;10325858;28;1965;-77
2024/03/17 20:43:03;;;;;;;;;;;;;;;18.53;46.36;99896.84;10326075;28;773;-77
2024/03/17 20:47:59;;;;;;;;;;;;;;;18.53;46.36;99888.91;10324580;28;766;-78
2024/03/17 20:52:55;;;;;;;;;;;;;;;18.53;46.27;99894.19;10325679;28;821;-78
2024/03/17 20:57:51;;;;;;;;;;;;;;;18.51;46.54;99891.59;10324313;28;1894;-77
2024/03/17 21:02:48;;;;;;;;;;;;;;;18.50;46.32;99889.91;10324378;28;1023;-78
2024/03/17 21:07:43;;;;;;;;;;;;;;;18.51;46.41;99885.47;10324819;28;877;-78
2024/03/17 21:12:39;;;;;;;;;;;;;;;18.51;46.25;99869.63;10325550;28;775;-78
2024/03/17 21:17:36;;;;;;;;;;;;;;;18.49;46.28;99867.06;10325516;28;1894;-78
2024/03/17 21:22:32;;;;;;;;;;;;;;;18.50;46.26;99862.66;10324582;28;878;-78
2024/03/17 21:27:30;;;;;;;;;;;;;;;18.48;46.41;99861.88;10324965;28;875;-79
2024/03/17 21:32:26;;;;;;;;;;;;;;;18.49;46.26;99858.28;10324451;28;1827;-78
2024/03/17 21:37:22;;;;;;;;;;;;;;;18.48;46.40;99844.22;10324110;28;1983;-79
2024/03/17 21:42:18;;;;;;;;;;;;;;;18.48;46.30;99836.31;10324734;28;901;-78
2024/03/17 21:47:15;;;;;;;;;;;;;;;18.47;46.16;99842.53;10324049;28;831;-78
2024/03/17 21:52:11;;;;;;;;;;;;;;;18.47;46.41;99834.63;10324655;28;886;-78
2024/03/17 21:57:07;;;;;;;;;;;;;;;18.45;46.17;99839.09;10326508;28;1886;-78
2024/03/17 22:02:04;;;;;;;;;;;;;;;18.45;46.31;99835.59;10331217;28;872;-77
2024/03/17 22:06:59;;;;;;;;;;;;;;;18.43;46.26;99824.25;10330953;28;867;-78
2024/03/17 22:11:55;;;;;;;;;;;;;;;18.42;46.25;99818.13;10331630;28;900;-78
2024/03/17 22:16:51;;;;;;;;;;;;;;;18.40;46.25;99809.41;10331527;28;1897;-79
2024/03/17 22:21:47;;;;;;;;;;;;;;;18.38;46.32;99806.84;10330656;28;858;-78
2024/03/17 22:26:43;;;;;;;;;;;;;;;18.36;46.44;99816.59;10331951;28;866;-78
2024/03/17 22:31:39;;;;;;;;;;;;;;;18.34;46.30;99821.09;10330586;28;1158;-78
2024/03/17 22:36:36;;;;;;;;;;;;;;;18.33;46.31;99815.88;10330598;28;1961;-78
2024/03/17 22:41:32;;;;;;;;;;;;;;;18.31;46.38;99820.38;10330731;28;812;-78
2024/03/17 22:46:28;;;;;;;;;;;;;;;18.28;46.20;99813.44;10329815;28;935;-78
2024/03/17 22:51:24;;;;;;;;;;;;;;;18.27;46.31;99813.53;10330207;28;870;-79
2024/03/17 22:56:23;;;;;;;;;;;;;;;18.25;46.33;99804.81;10328622;28;1957;-78
2024/03/17 23:01:19;;;;;;;;;;;;;;;18.22;46.35;99794.41;10330081;28;877;-78
2024/03/17 23:06:14;;;;;;;;;;;;;;;18.20;46.50;99799.72;10329715;28;894;-79
2024/03/17 23:11:10;;;;;;;;;;;;;;;18.18;46.26;99785.75;10328853;28;911;-78
2024/03/17 23:16:06;;;;;;;;;;;;;;;18.16;46.08;99784.97;10328496;28;1886;-78
2024/03/17 23:21:02;;;;;;;;;;;;;;;18.14;46.19;99782.41;10328338;28;775;-78
2024/03/17 23:25:58;;;;;;;;;;;;;;;18.12;46.24;99780.75;10328791;28;866;-78
2024/03/17 23:30:54;;;;;;;;;;;;;;;18.10;46.16;99770.28;10328445;28;1328;-78
2024/03/17 23:35:53;;;;;;;;;;;;;;;18.08;46.15;99776.56;10327642;28;1914;-78
2024/03/17 23:40:49;;;;;;;;;;;;;;;18.07;46.17;99780.09;10327493;28;981;-78
2024/03/17 23:45:45;;;;;;;;;;;;;;;18.05;46.15;99782.81;10327253;28;918;-79
2024/03/17 23:50:41;;;;;;;;;;;;;;;18.03;46.27;99774.13;10327496;28;955;-78
2024/03/17 23:55:37;;;;;;;;;;;;;;;18.02;46.29;99768.88;10327468;28;1894;-78
